Time;durP1;ratioP1;P1;durP2;ratioP2;P2;SDS_P1;SDS_P2;PMS_P1;PMS_P2;Temp;Humidity;BMP_temperature;BMP_pressure;BME280_temperature;BME280_humidity;BME280_pressure;Samples;Min_cycle;Max_cycle;Signal;HPM_P1;HPM_P2
2022/10/09 00:00:35;;;;;;;9.38;1.95;;;;;;;;;;5046147;28;20072;-83
2022/10/09 00:03:03;;;;;;;9.80;1.90;;;;;;;;;;5035463;28;20123;-84
2022/10/09 00:05:38;;;;;;;7.38;2.05;;;;;;;;;;5041826;28;20198;-83
2022/10/09 00:08:10;;;;;;;11.38;1.85;;;;;;;;;;5054939;28;20048;-84
2022/10/09 00:10:43;;;;;;;6.85;1.80;;;;;;;;;;5060739;28;20041;-83
2022/10/09 00:13:11;;;;;;;6.07;1.85;;;;;;;;;;5055923;28;20124;-83
2022/10/09 00:15:42;;;;;;;7.18;2.17;;;;;;;;;;5023594;28;20052;-83
2022/10/09 00:18:14;;;;;;;6.63;1.58;;;;;;;;;;5041960;28;20044;-84
2022/10/09 00:20:55;;;;;;;5.68;1.27;;;;;;;;;;5031072;28;20049;-84
2022/10/09 00:24:03;;;;;;;6.05;1.75;;;;;;;;;;5052695;28;20087;-83
2022/10/09 00:26:35;;;;;;;6.43;1.48;;;;;;;;;;5042305;28;20119;-84
2022/10/09 00:29:07;;;;;;;6.15;2.10;;;;;;;;;;5040162;28;20045;-83
2022/10/09 00:31:35;;;;;;;11.82;1.80;;;;;;;;;;5060022;28;20049;-84
2022/10/09 00:35:36;;;;;;;11.43;1.73;;;;;;;;;;5034122;28;20052;-84
2022/10/09 00:38:37;;;;;;;4.22;1.77;;;;;;;;;;5012919;28;20057;-84
2022/10/09 00:41:23;;;;;;;9.13;1.98;;;;;;;;;;4986586;28;20806;-84
2022/10/09 00:44:56;;;;;;;3.25;1.42;;;;;;;;;;5004860;28;20041;-84
2022/10/09 00:47:43;;;;;;;3.83;1.30;;;;;;;;;;5016396;28;20053;-83
2022/10/09 00:50:24;;;;;;;10.25;1.80;;;;;;;;;;5031023;28;20052;-83
2022/10/09 00:52:59;;;;;;;10.70;1.85;;;;;;;;;;5016176;28;20049;-83
2022/10/09 00:55:29;;;;;;;4.07;1.45;;;;;;;;;;5038091;28;20485;-84
2022/10/09 00:58:15;;;;;;;5.80;1.83;;;;;;;;;;5013728;28;20057;-84
2022/10/09 01:00:52;;;;;;;8.65;1.92;;;;;;;;;;5001845;28;20050;-84
2022/10/09 01:03:39;;;;;;;8.70;1.90;;;;;;;;;;5015075;28;20555;-83
2022/10/09 01:06:39;;;;;;;9.48;1.75;;;;;;;;;;5017155;28;20038;-84
2022/10/09 01:09:13;;;;;;;4.35;1.75;;;;;;;;;;5039030;28;20063;-84
2022/10/09 01:12:05;;;;;;;4.15;1.60;;;;;;;;;;5041231;28;20041;-83
2022/10/09 01:14:40;;;;;;;8.95;1.73;;;;;;;;;;5037566;28;20041;-83
2022/10/09 01:17:37;;;;;;;5.22;1.58;;;;;;;;;;5041356;28;20045;-83
2022/10/09 01:20:46;;;;;;;7.53;2.00;;;;;;;;;;5038442;28;20037;-83
2022/10/09 01:23:46;;;;;;;10.25;2.00;;;;;;;;;;5039354;28;20120;-84
2022/10/09 01:29:14;;;;;;;5.85;1.55;;;;;;;;;;5037640;28;20116;-84
2022/10/09 01:31:57;;;;;;;10.45;1.50;;;;;;;;;;5064247;28;20575;-83
2022/10/09 01:34:51;;;;;;;4.97;1.77;;;;;;;;;;5052820;28;20071;-84
2022/10/09 01:37:21;;;;;;;9.65;1.77;;;;;;;;;;5035219;28;20056;-84
2022/10/09 01:39:55;;;;;;;7.88;1.67;;;;;;;;;;5052737;28;20773;-83
2022/10/09 01:42:26;;;;;;;7.47;1.80;;;;;;;;;;5043675;28;20131;-83
2022/10/09 01:45:41;;;;;;;6.72;1.83;;;;;;;;;;5042958;28;20091;-83
2022/10/09 01:48:23;;;;;;;6.35;1.60;;;;;;;;;;5041410;28;20413;-83
2022/10/09 01:51:00;;;;;;;7.55;1.63;;;;;;;;;;5028791;28;20091;-83
2022/10/09 01:53:28;;;;;;;9.95;2.00;;;;;;;;;;5068591;28;20417;-83
2022/10/09 01:56:08;;;;;;;7.07;1.92;;;;;;;;;;5041332;28;20492;-83
2022/10/09 01:58:48;;;;;;;7.75;1.92;;;;;;;;;;5068894;28;20048;-83
2022/10/09 02:01:46;;;;;;;8.57;2.08;;;;;;;;;;5053285;28;20063;-83
2022/10/09 02:04:40;;;;;;;4.25;1.30;;;;;;;;;;5039657;28;20486;-83
2022/10/09 02:07:08;;;;;;;5.80;1.75;;;;;;;;;;5055390;28;20048;-83
2022/10/09 02:09:38;;;;;;;9.70;2.20;;;;;;;;;;5019666;28;20566;-84
2022/10/09 02:12:21;;;;;;;7.55;2.28;;;;;;;;;;5054317;28;20067;-83
2022/10/09 02:14:53;;;;;;;6.75;1.63;;;;;;;;;;5033718;28;20037;-83
2022/10/09 02:17:26;;;;;;;5.13;1.52;;;;;;;;;;5033860;28;20142;-84
2022/10/09 02:20:02;;;;;;;5.82;1.63;;;;;;;;;;5049979;28;20045;-83
2022/10/09 02:22:35;;;;;;;4.90;1.75;;;;;;;;;;5038615;28;20072;-84
2022/10/09 02:25:06;;;;;;;8.18;1.75;;;;;;;;;;5035182;28;20114;-84
2022/10/09 02:27:58;;;;;;;6.57;2.03;;;;;;;;;;5037511;28;20044;-83
2022/10/09 02:30:39;;;;;;;3.25;1.52;;;;;;;;;;5057421;28;20120;-84
2022/10/09 02:33:15;;;;;;;4.95;1.73;;;;;;;;;;5067670;28;20041;-83
2022/10/09 02:35:44;;;;;;;7.70;1.80;;;;;;;;;;5037835;28;20041;-84
2022/10/09 02:38:13;;;;;;;6.72;1.83;;;;;;;;;;5043280;28;20044;-83
2022/10/09 02:40:41;;;;;;;8.70;2.03;;;;;;;;;;5043913;28;20071;-83
2022/10/09 02:43:35;;;;;;;5.68;1.80;;;;;;;;;;5045074;28;21020;-84
2022/10/09 02:46:04;;;;;;;4.32;1.80;;;;;;;;;;5038969;28;20049;-84
2022/10/09 02:48:32;;;;;;;4.47;1.88;;;;;;;;;;5038887;28;20072;-83
2022/10/09 02:51:14;;;;;;;5.57;1.55;;;;;;;;;;5046806;28;20126;-84
2022/10/09 02:53:58;;;;;;;7.18;1.73;;;;;;;;;;5034876;28;20045;-84
2022/10/09 02:56:40;;;;;;;5.43;1.90;;;;;;;;;;5047925;28;20045;-84
2022/10/09 02:59:37;;;;;;;6.55;1.90;;;;;;;;;;5036257;28;20070;-84
2022/10/09 03:02:05;;;;;;;7.00;1.98;;;;;;;;;;5053464;28;20047;-83
2022/10/09 03:04:33;;;;;;;10.02;3.58;;;;;;;;;;5070046;28;20409;-84
2022/10/09 03:07:25;;;;;;;6.28;2.17;;;;;;;;;;5064358;28;20037;-84
2022/10/09 03:09:58;;;;;;;7.47;2.10;;;;;;;;;;5037824;28;20780;-83
2022/10/09 03:13:05;;;;;;;4.43;1.77;;;;;;;;;;5044394;28;20448;-83
2022/10/09 03:15:34;;;;;;;5.38;2.30;;;;;;;;;;5043522;28;20068;-83
2022/10/09 03:18:02;;;;;;;5.63;1.90;;;;;;;;;;5068549;28;20052;-84
2022/10/09 03:20:38;;;;;;;9.95;2.28;;;;;;;;;;5052772;28;20037;-83
2022/10/09 03:23:31;;;;;;;5.13;2.00;;;;;;;;;;5042391;28;20044;-83
2022/10/09 03:26:06;;;;;;;6.57;2.35;;;;;;;;;;5041091;28;20052;-83
2022/10/09 03:28:49;;;;;;;4.32;1.88;;;;;;;;;;5055054;28;20134;-83
2022/10/09 03:31:20;;;;;;;5.45;1.98;;;;;;;;;;5040863;28;20596;-84
2022/10/09 03:34:02;;;;;;;3.97;2.00;;;;;;;;;;5050036;28;20094;-83
2022/10/09 03:36:43;;;;;;;5.13;1.80;;;;;;;;;;5044894;28;20103;-84
2022/10/09 03:39:17;;;;;;;6.60;1.83;;;;;;;;;;5063147;28;20041;-84
2022/10/09 03:41:46;;;;;;;4.95;2.20;;;;;;;;;;5049527;28;20132;-83
2022/10/09 03:44:28;;;;;;;6.70;2.15;;;;;;;;;;5042977;28;20051;-84
2022/10/09 03:48:34;;;;;;;5.30;2.10;;;;;;;;;;5036941;28;20534;-84
2022/10/09 03:51:59;;;;;;;5.75;1.98;;;;;;;;;;5039616;28;20045;-84
2022/10/09 03:54:28;;;;;;;5.13;2.30;;;;;;;;;;5053829;28;20036;-83
2022/10/09 03:56:55;;;;;;;5.65;2.13;;;;;;;;;;5041084;28;20037;-84
2022/10/09 03:59:31;;;;;;;8.07;1.95;;;;;;;;;;5038681;28;20506;-83
2022/10/09 04:02:00;;;;;;;4.60;1.85;;;;;;;;;;5039448;28;20122;-84
2022/10/09 04:04:27;;;;;;;5.95;2.38;;;;;;;;;;5039696;28;20052;-83
2022/10/09 04:06:57;;;;;;;6.10;2.28;;;;;;;;;;5040179;28;20047;-83
2022/10/09 04:09:25;;;;;;;4.32;1.90;;;;;;;;;;5041240;28;20047;-84
2022/10/09 04:12:08;;;;;;;4.10;1.80;;;;;;;;;;5063209;28;20052;-83
2022/10/09 04:14:36;;;;;;;4.07;2.30;;;;;;;;;;5071081;28;20536;-84
2022/10/09 04:17:13;;;;;;;6.57;1.95;;;;;;;;;;5057720;28;20578;-83
2022/10/09 04:20:06;;;;;;;4.22;1.70;;;;;;;;;;5035301;28;20029;-84
2022/10/09 04:22:33;;;;;;;4.88;1.92;;;;;;;;;;5043696;28;20497;-83
2022/10/09 04:25:02;;;;;;;5.50;1.52;;;;;;;;;;5040867;28;20165;-83
2022/10/09 04:27:31;;;;;;;7.40;2.00;;;;;;;;;;5040246;28;20120;-84
2022/10/09 04:30:23;;;;;;;7.90;2.35;;;;;;;;;;5036927;28;20025;-84
2022/10/09 04:32:55;;;;;;;6.43;2.10;;;;;;;;;;5051529;28;20120;-84
2022/10/09 04:35:27;;;;;;;5.97;2.47;;;;;;;;;;5039558;28;20060;-83
2022/10/09 04:38:01;;;;;;;6.10;2.53;;;;;;;;;;5036106;28;20068;-84
2022/10/09 04:40:33;;;;;;;7.80;2.67;;;;;;;;;;5041568;28;20063;-83
2022/10/09 04:43:01;;;;;;;7.63;2.65;;;;;;;;;;5068845;28;20044;-83
2022/10/09 04:45:29;;;;;;;5.53;2.75;;;;;;;;;;5040830;28;20063;-84
2022/10/09 04:48:03;;;;;;;9.05;2.92;;;;;;;;;;5038971;28;20037;-83
2022/10/09 04:50:38;;;;;;;7.15;2.60;;;;;;;;;;5039333;28;20036;-83
2022/10/09 04:53:05;;;;;;;6.95;2.95;;;;;;;;;;5023097;28;20040;-84
2022/10/09 04:55:38;;;;;;;7.68;2.90;;;;;;;;;;5036699;28;20033;-84
2022/10/09 04:59:39;;;;;;;7.13;2.72;;;;;;;;;;5037914;28;20800;-84
2022/10/09 05:03:01;;;;;;;8.48;2.70;;;;;;;;;;5035117;28;20128;-84
2022/10/09 05:05:31;;;;;;;5.95;2.50;;;;;;;;;;5060519;28;20400;-83
2022/10/09 05:08:23;;;;;;;10.57;2.92;;;;;;;;;;5037448;28;20033;-83
2022/10/09 05:10:51;;;;;;;7.55;2.95;;;;;;;;;;5077528;28;20083;-83
2022/10/09 05:13:19;;;;;;;6.03;2.63;;;;;;;;;;5073506;28;20124;-83
2022/10/09 05:15:48;;;;;;;5.38;2.60;;;;;;;;;;5039082;28;20488;-83
2022/10/09 05:18:19;;;;;;;10.02;2.95;;;;;;;;;;5039201;28;20071;-82
2022/10/09 05:21:13;;;;;;;7.90;2.97;;;;;;;;;;5041928;28;20095;-83
2022/10/09 05:23:42;;;;;;;6.00;2.72;;;;;;;;;;5042424;28;20881;-83
2022/10/09 05:26:12;;;;;;;6.80;2.60;;;;;;;;;;5039985;28;20048;-83
2022/10/09 05:28:39;;;;;;;4.75;2.65;;;;;;;;;;5045350;28;20698;-83
2022/10/09 05:31:26;;;;;;;5.88;2.30;;;;;;;;;;5072089;28;20049;-83
2022/10/09 05:34:00;;;;;;;5.60;2.72;;;;;;;;;;5040516;28;20045;-82
2022/10/09 05:36:28;;;;;;;9.60;2.88;;;;;;;;;;5041262;28;20165;-83
2022/10/09 05:38:56;;;;;;;4.80;2.35;;;;;;;;;;5073005;28;20045;-83
2022/10/09 05:41:23;;;;;;;4.43;2.25;;;;;;;;;;5073517;28;20378;-83
2022/10/09 05:43:51;;;;;;;7.43;2.35;;;;;;;;;;5043705;28;20051;-83
2022/10/09 05:46:47;;;;;;;4.65;2.50;;;;;;;;;;5056242;28;20928;-83
2022/10/09 05:49:16;;;;;;;9.45;2.78;;;;;;;;;;5038331;28;20048;-83
2022/10/09 05:52:08;;;;;;;7.97;2.72;;;;;;;;;;5043456;28;20588;-83
2022/10/09 05:54:35;;;;;;;7.00;3.65;;;;;;;;;;5046663;28;20039;-83
2022/10/09 05:57:08;;;;;;;4.82;2.78;;;;;;;;;;5041776;28;20049;-83
2022/10/09 05:59:36;;;;;;;8.73;2.92;;;;;;;;;;5039495;28;21899;-83
2022/10/09 06:02:03;;;;;;;6.38;2.55;;;;;;;;;;5054216;28;20051;-82
2022/10/09 06:04:31;;;;;;;7.18;2.85;;;;;;;;;;5041322;28;20048;-83
2022/10/09 06:07:00;;;;;;;8.25;2.95;;;;;;;;;;5047444;28;20037;-83
2022/10/09 06:09:51;;;;;;;6.32;2.75;;;;;;;;;;5055102;28;20165;-83
2022/10/09 06:12:43;;;;;;;8.95;3.22;;;;;;;;;;5042573;28;20028;-83
2022/10/09 06:15:12;;;;;;;7.05;3.05;;;;;;;;;;5042191;28;20040;-83
2022/10/09 06:17:40;;;;;;;8.60;2.88;;;;;;;;;;5040166;28;20048;-83
2022/10/09 06:20:08;;;;;;;5.93;2.72;;;;;;;;;;5041612;28;20043;-82
2022/10/09 06:22:35;;;;;;;5.35;2.55;;;;;;;;;;5040957;28;20068;-83
2022/10/09 06:25:09;;;;;;;8.27;3.15;;;;;;;;;;5042218;28;20033;-82
2022/10/09 06:27:37;;;;;;;10.68;3.72;;;;;;;;;;5074863;28;20044;-83
2022/10/09 06:30:06;;;;;;;6.10;2.72;;;;;;;;;;5040801;28;20504;-83
2022/10/09 06:32:33;;;;;;;6.65;3.53;;;;;;;;;;5072297;28;20037;-83
2022/10/09 06:35:06;;;;;;;7.82;3.58;;;;;;;;;;5037529;28;20127;-83
2022/10/09 06:37:33;;;;;;;11.57;3.65;;;;;;;;;;5056285;28;20043;-82
2022/10/09 06:40:02;;;;;;;7.60;3.67;;;;;;;;;;5055222;28;20049;-83
2022/10/09 06:42:29;;;;;;;7.70;3.47;;;;;;;;;;5045464;28;20044;-83
2022/10/09 06:44:57;;;;;;;10.90;3.25;;;;;;;;;;5045022;28;20083;-83
2022/10/09 06:47:25;;;;;;;6.82;3.53;;;;;;;;;;5073521;28;20126;-83
2022/10/09 06:49:54;;;;;;;6.78;2.90;;;;;;;;;;5054329;28;20057;-83
2022/10/09 06:52:45;;;;;;;8.23;3.60;;;;;;;;;;5059924;28;20052;-82
2022/10/09 06:55:14;;;;;;;7.88;2.90;;;;;;;;;;5043400;28;20041;-83
2022/10/09 06:58:11;;;;;;;6.78;3.42;;;;;;;;;;5057892;28;20055;-83
2022/10/09 07:00:39;;;;;;;8.57;3.00;;;;;;;;;;5042946;28;20473;-83
2022/10/09 07:03:08;;;;;;;8.05;3.00;;;;;;;;;;5044539;28;20041;-83
2022/10/09 07:05:35;;;;;;;6.32;2.90;;;;;;;;;;5043881;28;20042;-83
2022/10/09 07:08:03;;;;;;;7.65;3.70;;;;;;;;;;5047382;28;20064;-83
2022/10/09 07:10:32;;;;;;;7.10;3.30;;;;;;;;;;5042382;28;20052;-82
2022/10/09 07:13:03;;;;;;;9.77;3.38;;;;;;;;;;5046345;28;20045;-83
2022/10/09 07:15:55;;;;;;;10.02;3.38;;;;;;;;;;5046119;28;20094;-83
2022/10/09 07:18:32;;;;;;;9.02;3.67;;;;;;;;;;5044175;28;20041;-83
2022/10/09 07:21:03;;;;;;;10.82;3.25;;;;;;;;;;5042735;28;20512;-83
2022/10/09 07:23:59;;;;;;;7.60;3.28;;;;;;;;;;5043577;28;20171;-83
2022/10/09 07:29:25;;;;;;;8.40;3.70;;;;;;;;;;5057810;28;20063;-82
2022/10/09 07:31:51;;;;;;;9.52;3.22;;;;;;;;;;5043750;28;20108;-82
2022/10/09 07:34:24;;;;;;;9.68;3.47;;;;;;;;;;5046024;28;20037;-82
2022/10/09 07:36:52;;;;;;;9.70;3.20;;;;;;;;;;5047329;28;20044;-82
2022/10/09 07:39:19;;;;;;;6.60;3.08;;;;;;;;;;5051780;28;20041;-83
2022/10/09 07:42:14;;;;;;;6.80;3.80;;;;;;;;;;5068070;28;20122;-83
2022/10/09 07:44:43;;;;;;;11.07;3.38;;;;;;;;;;5081313;28;20244;-83
2022/10/09 07:47:11;;;;;;;10.00;3.42;;;;;;;;;;5046497;28;20033;-83
2022/10/09 07:49:39;;;;;;;9.32;3.80;;;;;;;;;;5063619;28;20056;-82
2022/10/09 07:52:11;;;;;;;8.65;3.65;;;;;;;;;;5041713;28;20761;-83
2022/10/09 07:54:39;;;;;;;9.48;3.90;;;;;;;;;;5039535;28;20041;-82
2022/10/09 07:57:07;;;;;;;12.25;3.25;;;;;;;;;;5044328;28;20032;-83
2022/10/09 07:59:59;;;;;;;7.80;3.78;;;;;;;;;;5062224;28;20041;-82
2022/10/09 08:02:29;;;;;;;11.40;4.28;;;;;;;;;;5047528;28;20124;-83
2022/10/09 08:04:57;;;;;;;11.15;3.55;;;;;;;;;;5046939;28;20110;-82
2022/10/09 08:07:25;;;;;;;7.93;2.95;;;;;;;;;;5048336;28;20057;-82
2022/10/09 08:09:59;;;;;;;9.00;3.25;;;;;;;;;;5031816;28;20052;-82
2022/10/09 08:12:53;;;;;;;12.32;3.50;;;;;;;;;;5071779;28;20048;-82
2022/10/09 08:15:22;;;;;;;9.70;3.70;;;;;;;;;;5063786;28;20041;-82
2022/10/09 08:17:53;;;;;;;9.27;3.63;;;;;;;;;;5062916;28;20124;-83
2022/10/09 08:20:25;;;;;;;14.73;4.00;;;;;;;;;;5061239;28;20067;-83
2022/10/09 08:22:53;;;;;;;11.70;4.35;;;;;;;;;;5041906;28;20131;-82
2022/10/09 08:25:32;;;;;;;9.45;3.33;;;;;;;;;;5047245;28;20069;-83
2022/10/09 08:28:04;;;;;;;7.28;3.92;;;;;;;;;;5046594;28;20040;-83
2022/10/09 08:32:25;;;;;;;9.45;3.75;;;;;;;;;;5047226;28;20056;-83
2022/10/09 08:36:58;;;;;;;8.85;3.63;;;;;;;;;;5026682;28;20041;-85
2022/10/09 08:41:18;;;;;;;8.38;3.42;;;;;;;;;;4988361;28;20422;-85
2022/10/09 08:44:55;;;;;;;7.22;3.50;;;;;;;;;;4974144;28;20062;-83
2022/10/09 08:48:07;;;;;;;8.57;3.00;;;;;;;;;;4976624;28;20035;-84
2022/10/09 08:50:52;;;;;;;12.32;3.45;;;;;;;;;;4961888;28;20054;-84
2022/10/09 08:55:03;;;;;;;9.45;3.10;;;;;;;;;;4972685;28;20161;-86
2022/10/09 08:59:42;;;;;;;8.57;3.28;;;;;;;;;;4949605;29;20057;-86
2022/10/09 09:03:39;;;;;;;11.25;3.65;;;;;;;;;;4892160;29;20299;-84
2022/10/09 09:08:09;;;;;;;12.32;3.13;;;;;;;;;;4866281;29;20124;-86
2022/10/09 09:11:32;;;;;;;7.78;2.78;;;;;;;;;;4829700;29;20551;-84
2022/10/09 09:15:05;;;;;;;6.20;2.40;;;;;;;;;;4812842;29;20054;-84
2022/10/09 09:19:41;;;;;;;10.80;2.57;;;;;;;;;;4711991;30;20060;-85
2022/10/09 09:25:03;;;;;;;9.70;2.22;;;;;;;;;;4634019;30;20059;-85
2022/10/09 09:29:37;;;;;;;8.25;2.45;;;;;;;;;;4689309;30;20049;-84
2022/10/09 09:32:49;;;;;;;9.32;2.20;;;;;;;;;;4664010;30;20468;-83
2022/10/09 09:35:48;;;;;;;7.13;2.45;;;;;;;;;;4641457;30;20137;-84
2022/10/09 09:38:57;;;;;;;9.10;2.20;;;;;;;;;;4660593;30;20058;-84
2022/10/09 09:41:42;;;;;;;5.82;2.28;;;;;;;;;;4666491;30;20124;-82
2022/10/09 09:44:36;;;;;;;8.93;2.00;;;;;;;;;;4667047;30;20062;-82
2022/10/09 09:47:23;;;;;;;6.15;1.67;;;;;;;;;;4662992;30;20113;-82
2022/10/09 09:50:05;;;;;;;9.90;2.00;;;;;;;;;;4727382;30;20563;-83
2022/10/09 09:52:53;;;;;;;9.95;2.42;;;;;;;;;;4728147;30;20056;-83
2022/10/09 09:55:26;;;;;;;6.97;2.28;;;;;;;;;;4754997;30;20113;-82
2022/10/09 09:58:20;;;;;;;7.20;2.22;;;;;;;;;;4806618;29;20045;-82
2022/10/09 10:01:25;;;;;;;6.88;2.92;;;;;;;;;;4953902;28;20046;-83
2022/10/09 10:03:56;;;;;;;8.73;2.03;;;;;;;;;;4993269;28;20149;-83
2022/10/09 10:06:40;;;;;;;9.18;2.80;;;;;;;;;;5023266;28;20042;-83
2022/10/09 10:09:17;;;;;;;5.03;2.38;;;;;;;;;;4996033;28;20128;-82
2022/10/09 10:12:02;;;;;;;6.45;1.80;;;;;;;;;;5001644;28;20109;-83
2022/10/09 10:14:30;;;;;;;8.48;2.10;;;;;;;;;;5052350;28;20045;-83
2022/10/09 10:17:27;;;;;;;11.32;2.00;;;;;;;;;;5046132;28;20037;-83
2022/10/09 10:20:29;;;;;;;4.72;1.70;;;;;;;;;;5050631;28;20048;-84
2022/10/09 10:24:11;;;;;;;6.20;1.95;;;;;;;;;;5018440;28;20045;-85
2022/10/09 10:27:43;;;;;;;3.92;1.63;;;;;;;;;;5019697;28;20056;-85
2022/10/09 10:30:58;;;;;;;8.07;1.75;;;;;;;;;;5003189;28;20045;-86
2022/10/09 10:34:28;;;;;;;7.85;1.85;;;;;;;;;;5002223;28;20073;-87
2022/10/09 10:39:40;;;;;;;7.60;2.00;;;;;;;;;;4927239;29;20503;-88
2022/10/09 10:43:28;;;;;;;7.85;2.33;;;;;;;;;;4866908;29;20565;-84
2022/10/09 10:52:50;;;;;;;6.28;2.05;;;;;;;;;;4833982;29;20057;-85
2022/10/09 11:02:22;;;;;;;9.73;1.80;;;;;;;;;;4812177;29;20129;-86
2022/10/09 11:07:03;;;;;;;6.90;1.73;;;;;;;;;;4814734;29;20054;-86
2022/10/09 11:11:42;;;;;;;5.70;2.05;;;;;;;;;;4782727;30;20055;-85
2022/10/09 11:20:47;;;;;;;6.50;2.47;;;;;;;;;;4778701;29;20062;-89
2022/10/09 11:24:30;;;;;;;8.07;1.67;;;;;;;;;;4769761;30;20062;-85
2022/10/09 11:28:27;;;;;;;12.02;1.88;;;;;;;;;;4772988;29;20044;-85
2022/10/09 11:42:01;;;;;;;8.75;2.22;;;;;;;;;;4733368;30;20063;-85
2022/10/09 11:46:37;;;;;;;8.63;2.42;;;;;;;;;;4735193;30;20044;-87
2022/10/09 11:51:26;;;;;;;6.25;2.00;;;;;;;;;;4786708;29;20066;-86
2022/10/09 12:00:33;;;;;;;9.27;2.45;;;;;;;;;;4735881;30;20135;-85
2022/10/09 12:08:26;;;;;;;4.50;0.98;;;;;;;;;;4752228;30;20078;-84
2022/10/09 12:11:18;;;;;;;4.10;0.82;;;;;;;;;;4773326;29;20048;-84
2022/10/09 12:16:52;;;;;;;4.15;1.85;;;;;;;;;;4767733;30;20054;-84
2022/10/09 12:19:24;;;;;;;7.47;1.23;;;;;;;;;;4750897;30;20052;-84
2022/10/09 12:22:26;;;;;;;5.35;1.10;;;;;;;;;;4753480;30;20512;-87
2022/10/09 12:25:53;;;;;;;6.28;1.02;;;;;;;;;;4771823;29;20139;-85
2022/10/09 12:29:04;;;;;;;4.80;1.00;;;;;;;;;;4797883;29;20069;-84
2022/10/09 12:45:25;;;;;;;6.63;1.05;;;;;;;;;;4828539;29;20191;-85
2022/10/09 12:50:00;;;;;;;3.53;1.13;;;;;;;;;;4850502;29;20152;-85
2022/10/09 12:53:06;;;;;;;5.25;1.05;;;;;;;;;;4848504;29;20053;-84
2022/10/09 12:55:59;;;;;;;4.35;1.10;;;;;;;;;;4836860;29;20046;-87
2022/10/09 12:58:42;;;;;;;6.18;1.30;;;;;;;;;;4852171;29;20612;-84
2022/10/09 13:01:31;;;;;;;5.70;1.30;;;;;;;;;;4858088;29;20042;-84
2022/10/09 13:04:38;;;;;;;5.35;1.17;;;;;;;;;;4850979;29;20084;-84
2022/10/09 13:07:25;;;;;;;7.15;0.95;;;;;;;;;;4855492;29;20145;-85
2022/10/09 13:10:19;;;;;;;5.78;1.00;;;;;;;;;;4834531;29;20049;-84
2022/10/09 13:13:02;;;;;;;2.78;0.80;;;;;;;;;;4913609;28;20053;-84
2022/10/09 13:15:44;;;;;;;8.00;1.17;;;;;;;;;;4949595;28;20913;-84
2022/10/09 13:19:02;;;;;;;6.53;1.33;;;;;;;;;;4943259;28;20049;-84
2022/10/09 13:22:18;;;;;;;4.22;0.90;;;;;;;;;;4960638;28;20046;-85
2022/10/09 13:25:00;;;;;;;6.78;0.95;;;;;;;;;;4997955;28;20049;-83
2022/10/09 13:27:36;;;;;;;7.72;1.25;;;;;;;;;;5063858;28;20037;-82
2022/10/09 13:30:10;;;;;;;6.88;1.20;;;;;;;;;;5065533;28;20504;-83
2022/10/09 13:32:48;;;;;;;5.45;1.40;;;;;;;;;;5064573;28;20520;-85
2022/10/09 13:35:16;;;;;;;5.70;1.40;;;;;;;;;;5045645;28;20063;-82
2022/10/09 13:37:44;;;;;;;4.57;1.52;;;;;;;;;;5066034;28;20066;-83
2022/10/09 13:40:19;;;;;;;3.38;1.00;;;;;;;;;;5054535;28;20037;-83
2022/10/09 13:42:53;;;;;;;6.88;1.50;;;;;;;;;;5063868;28;20076;-83
2022/10/09 13:45:20;;;;;;;4.28;0.95;;;;;;;;;;5062067;28;20081;-84
2022/10/09 13:48:13;;;;;;;8.50;1.20;;;;;;;;;;5062094;28;20048;-83
2022/10/09 13:52:15;;;;;;;3.55;0.95;;;;;;;;;;5044942;28;20179;-86
2022/10/09 13:55:48;;;;;;;5.15;1.65;;;;;;;;;;4978856;28;20616;-85
2022/10/09 14:04:22;;;;;;;3.20;0.82;;;;;;;;;;4979091;28;20057;-87
2022/10/09 14:08:54;;;;;;;6.30;1.90;;;;;;;;;;4943350;28;20634;-85
2022/10/09 14:12:44;;;;;;;3.75;1.10;;;;;;;;;;4944931;28;20141;-85
2022/10/09 14:15:32;;;;;;;5.82;0.93;;;;;;;;;;4941934;28;20480;-87
2022/10/09 14:27:18;;;;;;;2.80;0.82;;;;;;;;;;4964818;28;20478;-86
2022/10/09 14:31:25;;;;;;;3.10;0.82;;;;;;;;;;4966039;28;20158;-85
2022/10/09 14:34:22;;;;;;;5.43;1.13;;;;;;;;;;4949583;28;20109;-83
2022/10/09 14:37:14;;;;;;;4.30;1.00;;;;;;;;;;4950175;28;20098;-84
2022/10/09 14:40:44;;;;;;;3.75;1.00;;;;;;;;;;4943893;28;20064;-82
2022/10/09 14:43:12;;;;;;;6.53;0.85;;;;;;;;;;4953384;29;20043;-82
2022/10/09 14:45:39;;;;;;;6.45;1.20;;;;;;;;;;4951373;28;20062;-82
2022/10/09 14:48:33;;;;;;;4.00;1.00;;;;;;;;;;4948602;28;20056;-82
2022/10/09 14:51:09;;;;;;;6.13;1.13;;;;;;;;;;4941524;29;20044;-82
2022/10/09 14:53:42;;;;;;;3.35;0.98;;;;;;;;;;4985188;28;20169;-82
2022/10/09 14:56:12;;;;;;;4.70;0.98;;;;;;;;;;4984584;28;20541;-82
2022/10/09 14:58:46;;;;;;;4.32;1.02;;;;;;;;;;4987297;28;20046;-82
2022/10/09 15:01:21;;;;;;;3.55;0.80;;;;;;;;;;5005256;28;20057;-82
2022/10/09 15:03:50;;;;;;;2.95;0.98;;;;;;;;;;5006008;28;20034;-82
2022/10/09 15:06:26;;;;;;;3.78;1.02;;;;;;;;;;4988151;28;20049;-83
2022/10/09 15:08:56;;;;;;;4.80;1.02;;;;;;;;;;4992527;28;20133;-83
2022/10/09 15:11:29;;;;;;;5.80;1.25;;;;;;;;;;5024657;28;20130;-82
2022/10/09 15:14:03;;;;;;;7.00;1.08;;;;;;;;;;5060356;28;20033;-82
2022/10/09 15:16:29;;;;;;;6.78;1.27;;;;;;;;;;5044540;28;20053;-82
2022/10/09 15:18:58;;;;;;;4.32;1.00;;;;;;;;;;5046721;28;20041;-82
2022/10/09 15:21:29;;;;;;;3.10;1.00;;;;;;;;;;5031817;28;20128;-82
2022/10/09 15:23:57;;;;;;;7.32;1.38;;;;;;;;;;5063800;28;20068;-82
2022/10/09 15:26:49;;;;;;;2.33;0.93;;;;;;;;;;5045833;28;20045;-82
2022/10/09 15:29:22;;;;;;;6.57;1.13;;;;;;;;;;5036211;28;20063;-82
2022/10/09 15:31:50;;;;;;;3.55;1.50;;;;;;;;;;5081190;28;20045;-83
2022/10/09 15:34:25;;;;;;;6.35;1.40;;;;;;;;;;5080087;28;20505;-84
2022/10/09 15:37:08;;;;;;;5.55;1.30;;;;;;;;;;5050553;28;20048;-84
2022/10/09 15:39:49;;;;;;;4.63;1.20;;;;;;;;;;5046809;28;20033;-84
2022/10/09 15:42:23;;;;;;;5.78;1.60;;;;;;;;;;5085019;28;20033;-84
2022/10/09 15:44:51;;;;;;;8.15;2.03;;;;;;;;;;5049829;28;20044;-83
2022/10/09 15:47:34;;;;;;;3.88;1.40;;;;;;;;;;5050240;28;20044;-85
2022/10/09 15:50:16;;;;;;;5.45;1.45;;;;;;;;;;5052433;28;20045;-85
2022/10/09 15:52:55;;;;;;;4.35;1.20;;;;;;;;;;5051081;28;20124;-85
2022/10/09 15:55:50;;;;;;;5.70;1.60;;;;;;;;;;5062015;28;20032;-86
2022/10/09 15:58:31;;;;;;;5.82;1.65;;;;;;;;;;5069182;28;20037;-85
2022/10/09 16:01:09;;;;;;;6.45;1.50;;;;;;;;;;5055002;28;20096;-84
2022/10/09 16:03:52;;;;;;;4.90;1.30;;;;;;;;;;5065480;28;20124;-84
2022/10/09 16:06:43;;;;;;;4.05;1.40;;;;;;;;;;5047212;28;20508;-84
2022/10/09 16:09:19;;;;;;;3.92;1.30;;;;;;;;;;5073083;28;20135;-83
2022/10/09 16:11:49;;;;;;;7.00;1.60;;;;;;;;;;5057461;28;20039;-84
2022/10/09 16:14:27;;;;;;;5.82;1.40;;;;;;;;;;5070964;28;20044;-83
2022/10/09 16:16:57;;;;;;;5.95;1.60;;;;;;;;;;5069793;28;20068;-83
2022/10/09 16:19:36;;;;;;;7.60;1.55;;;;;;;;;;5084452;28;20041;-83
2022/10/09 16:22:04;;;;;;;5.05;1.65;;;;;;;;;;5054400;28;20051;-83
2022/10/09 16:26:15;;;;;;;4.88;2.00;;;;;;;;;;5045551;28;20957;-85
2022/10/09 16:28:45;;;;;;;7.05;1.77;;;;;;;;;;5028292;28;20052;-83
2022/10/09 16:31:34;;;;;;;4.65;1.80;;;;;;;;;;5044731;28;20125;-84
2022/10/09 16:35:31;;;;;;;9.32;2.95;;;;;;;;;;5040876;28;20052;-84
2022/10/09 16:39:28;;;;;;;5.93;3.03;;;;;;;;;;5013906;28;20048;-85
2022/10/09 16:42:51;;;;;;;;;;;;;;;;;;4997485;28;20049;-84
2022/10/09 16:47:27;;;;;;;4.18;1.98;;;;;;;;;;4961911;28;19917;-84
2022/10/09 16:50:12;;;;;;;7.35;2.05;;;;;;;;;;4936586;28;20057;-84
2022/10/09 16:52:39;;;;;;;6.20;2.33;;;;;;;;;;4936935;28;20074;-84
2022/10/09 16:55:22;;;;;;;5.90;1.80;;;;;;;;;;4967677;28;20082;-85
2022/10/09 16:58:04;;;;;;;10.90;2.88;;;;;;;;;;4965431;28;20049;-85
2022/10/09 17:01:11;;;;;;;9.00;2.60;;;;;;;;;;4938686;28;21595;-84
2022/10/09 17:04:08;;;;;;;11.60;2.97;;;;;;;;;;4940584;28;20086;-83
2022/10/09 17:06:35;;;;;;;5.03;2.20;;;;;;;;;;4929875;28;20062;-83
2022/10/09 17:09:09;;;;;;;12.65;3.50;;;;;;;;;;4966492;28;20061;-84
2022/10/09 17:12:00;;;;;;;8.43;2.85;;;;;;;;;;4969282;28;20125;-84
2022/10/09 17:14:59;;;;;;;7.07;2.78;;;;;;;;;;4986696;28;20069;-84
2022/10/09 17:17:41;;;;;;;7.20;2.47;;;;;;;;;;5001745;28;20056;-84
2022/10/09 17:20:11;;;;;;;4.82;1.88;;;;;;;;;;5008389;28;20510;-85
2022/10/09 17:23:31;;;;;;;6.47;2.33;;;;;;;;;;5009724;28;20045;-85
2022/10/09 17:26:37;;;;;;;9.02;2.13;;;;;;;;;;5000201;28;20057;-85
2022/10/09 17:29:44;;;;;;;5.50;2.10;;;;;;;;;;5012468;28;20089;-85
2022/10/09 17:33:26;;;;;;;8.50;3.10;;;;;;;;;;5000620;28;20304;-86
2022/10/09 17:36:30;;;;;;;11.55;2.75;;;;;;;;;;4997603;28;20505;-85
2022/10/09 17:39:37;;;;;;;6.05;2.22;;;;;;;;;;5003201;28;20088;-85
2022/10/09 17:42:24;;;;;;;;;;;;;;;;;;5004358;28;20084;-85
2022/10/09 17:46:47;;;;;;;3.72;1.70;;;;;;;;;;4959828;28;19945;-86
2022/10/09 17:50:07;;;;;;;6.18;2.25;;;;;;;;;;4983081;28;20154;-84
2022/10/09 17:53:00;;;;;;;7.38;2.38;;;;;;;;;;4980500;28;20132;-85
2022/10/09 17:55:43;;;;;;;5.65;2.20;;;;;;;;;;4968642;28;20058;-86
2022/10/09 17:58:26;;;;;;;7.20;2.40;;;;;;;;;;5010764;28;20052;-84
2022/10/09 18:01:09;;;;;;;7.63;2.85;;;;;;;;;;5010012;28;20164;-85
2022/10/09 18:03:54;;;;;;;7.85;2.72;;;;;;;;;;5020865;28;20091;-84
2022/10/09 18:08:03;;;;;;;7.38;2.20;;;;;;;;;;5024008;28;20137;-85
2022/10/09 18:11:13;;;;;;;8.73;2.60;;;;;;;;;;5003483;28;20068;-84
2022/10/09 18:14:06;;;;;;;4.72;1.85;;;;;;;;;;5004606;28;20147;-85
2022/10/09 18:16:44;;;;;;;7.85;2.15;;;;;;;;;;5004843;28;20535;-84
2022/10/09 18:19:26;;;;;;;7.38;2.22;;;;;;;;;;5025881;28;20785;-84
2022/10/09 18:22:07;;;;;;;3.65;1.60;;;;;;;;;;5035170;28;21511;-84